METAR AND TAF INFORMATION
METAR FOR UTDK
ADDS - METARS form results

(0744 UTC 16 May 2022)
Data provider http://aviationweather.gov/metar/data/
 
METAR text: UTDK 160730Z VRB02MPS 9999 NSC 28/13 Q1014 R01/09//70 RMK QFE703/0937
Conditions at: UTDK (KOLUB , TJ) observed 0730 UTC 16 May 2022
Temperature: 28.0°C (82°F)
Dewpoint: 13.0°C (55°F) [RH = 40%]
Pressure (altimeter): 29.94 inches Hg (1014.0 mb)
Winds: variable direction winds at 5 MPH (4 knots; 2.1 m/s)
Visibility: 6 or more miles (10+ km)
Ceiling: at least 12,000 feet AGL
Clouds: sky clear below 12,000 feet AGL
Weather: no significant weather observed at this time

METAR text: UTDK 160700Z VRB02MPS 9999 NSC 27/14 Q1015 R01/09//70 RMK QFE703/0938
Conditions at: UTDK (KOLUB , TJ) observed 0700 UTC 16 May 2022
Temperature: 27.0°C (81°F)
Dewpoint: 14.0°C (57°F) [RH = 45%]
Pressure (altimeter): 29.97 inches Hg (1015.0 mb)
Winds: variable direction winds at 5 MPH (4 knots; 2.1 m/s)
Visibility: 6 or more miles (10+ km)
Ceiling: at least 12,000 feet AGL
Clouds: sky clear below 12,000 feet AGL
Weather: no significant weather observed at this time

Forecast for: UTDK (KOLUB , TJ)
Text: TAF UTDK 160600Z 1607/1616 VRB02MPS 8000 FEW066CB SCT100
Forecast period: 0700 to 1600 UTC 16 May 2022
Forecast type: FROM: standard forecast or significant change
Winds: variable direction winds at 5 MPH (4 knots; 2.1 m/s)
Visibility: 5 miles (8 km)
Ceiling: at least 12,000 feet AGL
Clouds: few clouds at 6600 feet AGL
scattered clouds at 10000 feet AGL
Weather: no significant weather forecast for this period
Text: PROB40
Forecast period: 0700 to 1400 UTC 16 May 2022
Forecast type: TEMPORARY: The following changes expected for less than half the time period
Winds: variable direction winds at 16 MPH (14 knots; 7.2 m/s)
Visibility: missing
Ceiling: unknown
Clouds: missing
Weather: TS  (thunderstorm)

 AIRPORT MAP

 RUNWAY INFORMATION
Runway 01 Runway length 9843 ft Runway width 137 ft
Runway elevation 2149 ft Runway displaced threshold 0 ft Runway heading 17
Runway 19 Runway length 9843 ft Runway width 137 ft
Runway elevation 2293 ft Runway displaced threshold 0 ft Runway heading 197

 AIRPORT FREQUENCIES
Type TWR Name TWR Frequency 118.5 MHZ

 AIRPORT NEAR NAVIGATION AIDS
Type NDB Name Kulyab Frequency 298 KHZ





Powered by Virtual Airlines Manager

Maps by Rafael Santos